Wasola, Missouri
Current Conditions -  °F | °C
As of 1:53 AM on Monday 22 Dec 2014 (Local Time) from KBPK Reporting Station
Overcast Overcast  
Wind Chill: 39°   Ceiling: 2300
Heat Index: 43°   Visibility: 10mi
Dew Point: 36°   Wind: 6mph
Humidity: 76%   Direction: 120°ESE
Pressure: 29.78"   Gusts: NA
Location:  36.79°N, 92.58°W
Report Text: KBPK 220753Z AUTO 12005KT 10SM OVC023 06/02 A2978 RMK AO2 SLP087 T00610022
Loading
Personal Weather Stations






























Interactive Weather Map New forecast layout! Learn more

10-Day Weather Forecast

Advertisements
Track Severe Weather on mobile